sensor_id;sensor_type;location;lat;lon;timestamp;P1;durP1;ratioP1;P2;durP2;ratioP2
37997;SDS011;24079;51.824;4.682;2022-11-20T00:00:47;23.55;;;13.35;;
37997;SDS011;24079;51.824;4.682;2022-11-20T00:03:12;21.80;;;13.35;;
37997;SDS011;24079;51.824;4.682;2022-11-20T00:05:38;22.75;;;13.70;;
37997;SDS011;24079;51.824;4.682;2022-11-20T00:08:04;22.73;;;12.95;;
37997;SDS011;24079;51.824;4.682;2022-11-20T00:10:30;22.90;;;13.00;;
37997;SDS011;24079;51.824;4.682;2022-11-20T00:12:57;22.60;;;12.57;;
37997;SDS011;24079;51.824;4.682;2022-11-20T00:15:23;21.40;;;12.23;;
37997;SDS011;24079;51.824;4.682;2022-11-20T00:17:49;23.42;;;13.30;;
37997;SDS011;24079;51.824;4.682;2022-11-20T00:20:15;24.10;;;13.10;;
37997;SDS011;24079;51.824;4.682;2022-11-20T00:22:40;22.40;;;12.75;;
37997;SDS011;24079;51.824;4.682;2022-11-20T00:25:06;21.80;;;12.52;;
37997;SDS011;24079;51.824;4.682;2022-11-20T00:27:32;22.52;;;13.48;;
37997;SDS011;24079;51.824;4.682;2022-11-20T00:29:57;23.85;;;13.32;;
37997;SDS011;24079;51.824;4.682;2022-11-20T00:32:23;27.65;;;13.50;;
37997;SDS011;24079;51.824;4.682;2022-11-20T00:34:49;22.27;;;13.43;;
37997;SDS011;24079;51.824;4.682;2022-11-20T00:37:14;21.00;;;12.77;;
37997;SDS011;24079;51.824;4.682;2022-11-20T00:39:40;27.15;;;13.85;;
37997;SDS011;24079;51.824;4.682;2022-11-20T00:42:06;24.38;;;13.52;;
37997;SDS011;24079;51.824;4.682;2022-11-20T00:44:31;21.48;;;13.18;;
37997;SDS011;24079;51.824;4.682;2022-11-20T00:46:57;25.05;;;12.88;;
37997;SDS011;24079;51.824;4.682;2022-11-20T00:49:22;19.75;;;12.35;;
37997;SDS011;24079;51.824;4.682;2022-11-20T00:51:48;22.33;;;13.20;;
37997;SDS011;24079;51.824;4.682;2022-11-20T00:54:13;22.77;;;12.80;;
37997;SDS011;24079;51.824;4.682;2022-11-20T00:56:39;24.30;;;12.55;;
37997;SDS011;24079;51.824;4.682;2022-11-20T00:59:05;21.63;;;13.02;;
37997;SDS011;24079;51.824;4.682;2022-11-20T01:01:30;22.15;;;13.20;;
37997;SDS011;24079;51.824;4.682;2022-11-20T01:03:57;24.77;;;13.55;;
37997;SDS011;24079;51.824;4.682;2022-11-20T01:06:25;22.25;;;13.40;;
37997;SDS011;24079;51.824;4.682;2022-11-20T01:08:58;24.25;;;13.57;;
37997;SDS011;24079;51.824;4.682;2022-11-20T01:11:29;23.48;;;12.77;;
37997;SDS011;24079;51.824;4.682;2022-11-20T01:13:56;23.70;;;12.90;;
37997;SDS011;24079;51.824;4.682;2022-11-20T01:16:27;23.02;;;13.90;;
37997;SDS011;24079;51.824;4.682;2022-11-20T01:18:56;28.75;;;15.35;;
37997;SDS011;24079;51.824;4.682;2022-11-20T01:21:35;23.60;;;13.07;;
37997;SDS011;24079;51.824;4.682;2022-11-20T01:24:03;24.08;;;13.45;;
37997;SDS011;24079;51.824;4.682;2022-11-20T01:26:34;23.98;;;13.15;;
37997;SDS011;24079;51.824;4.682;2022-11-20T01:29:01;22.65;;;13.38;;
37997;SDS011;24079;51.824;4.682;2022-11-20T01:31:29;24.55;;;13.52;;
37997;SDS011;24079;51.824;4.682;2022-11-20T01:33:57;21.90;;;12.70;;
37997;SDS011;24079;51.824;4.682;2022-11-20T01:36:25;22.80;;;13.43;;
37997;SDS011;24079;51.824;4.682;2022-11-20T01:38:53;21.98;;;13.05;;
37997;SDS011;24079;51.824;4.682;2022-11-20T01:41:21;23.48;;;13.50;;
37997;SDS011;24079;51.824;4.682;2022-11-20T01:44:06;23.30;;;12.98;;
37997;SDS011;24079;51.824;4.682;2022-11-20T01:46:32;25.40;;;14.30;;
37997;SDS011;24079;51.824;4.682;2022-11-20T01:49:15;23.85;;;13.23;;
37997;SDS011;24079;51.824;4.682;2022-11-20T01:51:49;23.42;;;12.95;;
37997;SDS011;24079;51.824;4.682;2022-11-20T01:54:19;24.48;;;13.35;;
37997;SDS011;24079;51.824;4.682;2022-11-20T01:56:51;23.52;;;14.00;;
37997;SDS011;24079;51.824;4.682;2022-11-20T01:59:19;22.40;;;13.85;;
37997;SDS011;24079;51.824;4.682;2022-11-20T02:01:45;23.40;;;13.98;;
37997;SDS011;24079;51.824;4.682;2022-11-20T02:04:11;24.23;;;13.25;;
37997;SDS011;24079;51.824;4.682;2022-11-20T02:06:40;27.85;;;14.15;;
37997;SDS011;24079;51.824;4.682;2022-11-20T02:09:09;22.85;;;13.25;;
37997;SDS011;24079;51.824;4.682;2022-11-20T02:11:35;24.90;;;13.77;;
37997;SDS011;24079;51.824;4.682;2022-11-20T02:14:00;27.10;;;13.73;;
37997;SDS011;24079;51.824;4.682;2022-11-20T02:16:59;24.73;;;13.57;;
37997;SDS011;24079;51.824;4.682;2022-11-20T02:19:23;23.33;;;12.63;;
37997;SDS011;24079;51.824;4.682;2022-11-20T02:21:55;21.58;;;12.68;;
37997;SDS011;24079;51.824;4.682;2022-11-20T02:24:42;24.55;;;13.20;;
37997;SDS011;24079;51.824;4.682;2022-11-20T02:27:11;23.98;;;14.65;;
37997;SDS011;24079;51.824;4.682;2022-11-20T02:29:43;24.83;;;14.02;;
37997;SDS011;24079;51.824;4.682;2022-11-20T02:32:19;18.60;;;11.05;;
37997;SDS011;24079;51.824;4.682;2022-11-20T02:34:45;26.52;;;15.27;;
37997;SDS011;24079;51.824;4.682;2022-11-20T02:37:10;26.45;;;15.93;;
37997;SDS011;24079;51.824;4.682;2022-11-20T02:39:37;26.77;;;14.88;;
37997;SDS011;24079;51.824;4.682;2022-11-20T02:42:02;23.38;;;13.90;;
37997;SDS011;24079;51.824;4.682;2022-11-20T02:44:28;26.45;;;14.57;;
37997;SDS011;24079;51.824;4.682;2022-11-20T02:46:56;28.60;;;15.15;;
37997;SDS011;24079;51.824;4.682;2022-11-20T02:49:22;26.73;;;14.13;;
37997;SDS011;24079;51.824;4.682;2022-11-20T02:51:48;24.50;;;13.57;;
37997;SDS011;24079;51.824;4.682;2022-11-20T02:54:13;26.52;;;14.68;;
37997;SDS011;24079;51.824;4.682;2022-11-20T02:56:39;28.90;;;14.30;;
37997;SDS011;24079;51.824;4.682;2022-11-20T02:59:04;28.30;;;15.30;;
37997;SDS011;24079;51.824;4.682;2022-11-20T03:01:30;23.42;;;13.02;;
37997;SDS011;24079;51.824;4.682;2022-11-20T03:03:56;25.17;;;14.43;;
37997;SDS011;24079;51.824;4.682;2022-11-20T03:06:21;22.98;;;13.65;;
37997;SDS011;24079;51.824;4.682;2022-11-20T03:08:47;25.83;;;14.07;;
37997;SDS011;24079;51.824;4.682;2022-11-20T03:11:13;24.38;;;14.48;;
37997;SDS011;24079;51.824;4.682;2022-11-20T03:13:39;24.92;;;14.77;;
37997;SDS011;24079;51.824;4.682;2022-11-20T03:16:12;23.23;;;14.25;;
37997;SDS011;24079;51.824;4.682;2022-11-20T03:18:41;23.67;;;13.98;;
37997;SDS011;24079;51.824;4.682;2022-11-20T03:21:07;29.13;;;14.55;;
37997;SDS011;24079;51.824;4.682;2022-11-20T03:23:34;26.38;;;14.90;;
37997;SDS011;24079;51.824;4.682;2022-11-20T03:26:17;24.92;;;14.18;;
37997;SDS011;24079;51.824;4.682;2022-11-20T03:28:48;27.33;;;14.10;;
37997;SDS011;24079;51.824;4.682;2022-11-20T03:31:15;26.13;;;13.65;;
37997;SDS011;24079;51.824;4.682;2022-11-20T03:33:42;24.95;;;14.73;;
37997;SDS011;24079;51.824;4.682;2022-11-20T03:36:09;23.80;;;14.18;;
37997;SDS011;24079;51.824;4.682;2022-11-20T03:38:36;27.80;;;14.55;;
37997;SDS011;24079;51.824;4.682;2022-11-20T03:41:03;25.90;;;15.00;;
37997;SDS011;24079;51.824;4.682;2022-11-20T03:43:30;24.80;;;14.40;;
37997;SDS011;24079;51.824;4.682;2022-11-20T03:45:56;25.75;;;14.50;;
37997;SDS011;24079;51.824;4.682;2022-11-20T03:48:22;22.92;;;13.95;;
37997;SDS011;24079;51.824;4.682;2022-11-20T03:50:47;27.70;;;15.25;;
37997;SDS011;24079;51.824;4.682;2022-11-20T03:53:14;25.05;;;14.38;;
37997;SDS011;24079;51.824;4.682;2022-11-20T03:55:40;22.92;;;14.82;;
37997;SDS011;24079;51.824;4.682;2022-11-20T03:58:05;27.83;;;15.35;;
37997;SDS011;24079;51.824;4.682;2022-11-20T04:00:31;23.50;;;14.50;;
37997;SDS011;24079;51.824;4.682;2022-11-20T04:03:00;24.23;;;14.40;;
37997;SDS011;24079;51.824;4.682;2022-11-20T04:05:27;26.13;;;14.85;;
37997;SDS011;24079;51.824;4.682;2022-11-20T04:07:53;25.17;;;14.23;;
37997;SDS011;24079;51.824;4.682;2022-11-20T04:10:18;24.85;;;14.70;;
37997;SDS011;24079;51.824;4.682;2022-11-20T04:12:44;25.50;;;15.18;;
37997;SDS011;24079;51.824;4.682;2022-11-20T04:15:10;23.63;;;14.80;;
37997;SDS011;24079;51.824;4.682;2022-11-20T04:17:35;26.40;;;15.63;;
37997;SDS011;24079;51.824;4.682;2022-11-20T04:20:01;26.08;;;15.45;;
37997;SDS011;24079;51.824;4.682;2022-11-20T04:22:27;25.15;;;14.95;;
37997;SDS011;24079;51.824;4.682;2022-11-20T04:24:53;24.92;;;14.70;;
37997;SDS011;24079;51.824;4.682;2022-11-20T04:27:18;23.83;;;14.82;;
37997;SDS011;24079;51.824;4.682;2022-11-20T04:29:45;29.83;;;15.35;;
37997;SDS011;24079;51.824;4.682;2022-11-20T04:32:10;24.20;;;14.27;;
37997;SDS011;24079;51.824;4.682;2022-11-20T04:34:36;23.20;;;14.07;;
37997;SDS011;24079;51.824;4.682;2022-11-20T04:37:01;24.50;;;14.40;;
37997;SDS011;24079;51.824;4.682;2022-11-20T04:39:27;23.88;;;13.85;;
37997;SDS011;24079;51.824;4.682;2022-11-20T04:41:53;25.55;;;14.50;;
37997;SDS011;24079;51.824;4.682;2022-11-20T04:44:38;25.52;;;14.13;;
37997;SDS011;24079;51.824;4.682;2022-11-20T04:47:04;23.42;;;13.75;;
37997;SDS011;24079;51.824;4.682;2022-11-20T04:49:29;22.88;;;13.85;;
37997;SDS011;24079;51.824;4.682;2022-11-20T04:51:56;24.48;;;14.73;;
37997;SDS011;24079;51.824;4.682;2022-11-20T04:54:22;25.15;;;14.13;;
37997;SDS011;24079;51.824;4.682;2022-11-20T04:56:48;26.05;;;14.93;;
37997;SDS011;24079;51.824;4.682;2022-11-20T04:59:13;23.70;;;14.57;;
37997;SDS011;24079;51.824;4.682;2022-11-20T05:01:39;24.40;;;14.35;;
37997;SDS011;24079;51.824;4.682;2022-11-20T05:04:05;26.38;;;14.52;;
37997;SDS011;24079;51.824;4.682;2022-11-20T05:06:30;24.60;;;14.18;;
37997;SDS011;24079;51.824;4.682;2022-11-20T05:08:56;25.15;;;14.27;;
37997;SDS011;24079;51.824;4.682;2022-11-20T05:11:22;23.45;;;14.45;;
37997;SDS011;24079;51.824;4.682;2022-11-20T05:13:48;24.15;;;14.40;;
37997;SDS011;24079;51.824;4.682;2022-11-20T05:16:16;21.38;;;12.93;;
37997;SDS011;24079;51.824;4.682;2022-11-20T05:18:44;24.92;;;14.15;;
37997;SDS011;24079;51.824;4.682;2022-11-20T05:21:11;26.50;;;13.93;;
37997;SDS011;24079;51.824;4.682;2022-11-20T05:23:37;23.00;;;14.35;;
37997;SDS011;24079;51.824;4.682;2022-11-20T05:26:03;25.60;;;14.55;;
37997;SDS011;24079;51.824;4.682;2022-11-20T05:28:30;26.95;;;14.32;;
37997;SDS011;24079;51.824;4.682;2022-11-20T05:31:03;23.35;;;14.15;;
37997;SDS011;24079;51.824;4.682;2022-11-20T05:33:30;23.40;;;13.10;;
37997;SDS011;24079;51.824;4.682;2022-11-20T05:35:58;24.13;;;14.70;;
37997;SDS011;24079;51.824;4.682;2022-11-20T05:38:24;26.08;;;14.68;;
37997;SDS011;24079;51.824;4.682;2022-11-20T05:40:49;25.23;;;13.98;;
37997;SDS011;24079;51.824;4.682;2022-11-20T05:43:15;27.48;;;15.18;;
37997;SDS011;24079;51.824;4.682;2022-11-20T05:45:41;26.42;;;14.68;;
37997;SDS011;24079;51.824;4.682;2022-11-20T05:48:06;27.50;;;14.63;;
37997;SDS011;24079;51.824;4.682;2022-11-20T05:50:32;27.08;;;15.15;;
37997;SDS011;24079;51.824;4.682;2022-11-20T05:52:58;23.48;;;14.85;;
37997;SDS011;24079;51.824;4.682;2022-11-20T05:55:24;24.25;;;14.65;;
37997;SDS011;24079;51.824;4.682;2022-11-20T05:57:51;26.35;;;15.27;;
37997;SDS011;24079;51.824;4.682;2022-11-20T06:00:18;24.52;;;15.25;;
37997;SDS011;24079;51.824;4.682;2022-11-20T06:02:44;25.77;;;15.70;;
37997;SDS011;24079;51.824;4.682;2022-11-20T06:05:09;29.33;;;15.57;;
37997;SDS011;24079;51.824;4.682;2022-11-20T06:07:35;25.75;;;15.38;;
37997;SDS011;24079;51.824;4.682;2022-11-20T06:10:00;26.67;;;16.35;;
37997;SDS011;24079;51.824;4.682;2022-11-20T06:12:26;29.02;;;16.95;;
37997;SDS011;24079;51.824;4.682;2022-11-20T06:14:51;26.63;;;15.75;;
37997;SDS011;24079;51.824;4.682;2022-11-20T06:17:17;28.27;;;16.33;;
37997;SDS011;24079;51.824;4.682;2022-11-20T06:19:42;30.17;;;16.10;;
37997;SDS011;24079;51.824;4.682;2022-11-20T06:22:08;26.13;;;15.70;;
37997;SDS011;24079;51.824;4.682;2022-11-20T06:24:34;27.63;;;16.23;;
37997;SDS011;24079;51.824;4.682;2022-11-20T06:26:59;25.83;;;15.40;;
37997;SDS011;24079;51.824;4.682;2022-11-20T06:29:25;27.30;;;16.40;;
37997;SDS011;24079;51.824;4.682;2022-11-20T06:31:50;29.15;;;16.60;;
37997;SDS011;24079;51.824;4.682;2022-11-20T06:34:16;28.17;;;15.77;;
37997;SDS011;24079;51.824;4.682;2022-11-20T06:36:41;27.30;;;16.35;;
37997;SDS011;24079;51.824;4.682;2022-11-20T06:39:07;28.02;;;15.82;;
37997;SDS011;24079;51.824;4.682;2022-11-20T06:41:33;26.45;;;15.07;;
37997;SDS011;24079;51.824;4.682;2022-11-20T06:43:58;28.83;;;16.52;;
37997;SDS011;24079;51.824;4.682;2022-11-20T06:46:24;28.73;;;16.48;;
37997;SDS011;24079;51.824;4.682;2022-11-20T06:48:49;29.98;;;16.92;;
37997;SDS011;24079;51.824;4.682;2022-11-20T06:51:15;27.92;;;16.83;;
37997;SDS011;24079;51.824;4.682;2022-11-20T06:53:41;28.67;;;17.13;;
37997;SDS011;24079;51.824;4.682;2022-11-20T06:56:07;27.17;;;15.60;;
37997;SDS011;24079;51.824;4.682;2022-11-20T06:58:33;28.25;;;15.98;;
37997;SDS011;24079;51.824;4.682;2022-11-20T07:01:00;28.10;;;17.02;;
37997;SDS011;24079;51.824;4.682;2022-11-20T07:03:27;31.60;;;17.83;;
37997;SDS011;24079;51.824;4.682;2022-11-20T07:05:56;31.23;;;17.30;;
37997;SDS011;24079;51.824;4.682;2022-11-20T07:08:22;30.17;;;18.20;;
37997;SDS011;24079;51.824;4.682;2022-11-20T07:10:48;28.92;;;17.67;;
37997;SDS011;24079;51.824;4.682;2022-11-20T07:13:13;26.98;;;16.92;;
37997;SDS011;24079;51.824;4.682;2022-11-20T07:15:39;29.20;;;17.33;;
37997;SDS011;24079;51.824;4.682;2022-11-20T07:18:05;29.40;;;17.10;;
37997;SDS011;24079;51.824;4.682;2022-11-20T07:20:30;28.52;;;17.10;;
37997;SDS011;24079;51.824;4.682;2022-11-20T07:22:56;26.77;;;16.15;;
37997;SDS011;24079;51.824;4.682;2022-11-20T07:25:22;28.20;;;16.73;;
37997;SDS011;24079;51.824;4.682;2022-11-20T07:27:52;28.13;;;17.20;;
37997;SDS011;24079;51.824;4.682;2022-11-20T07:30:21;28.65;;;17.10;;
37997;SDS011;24079;51.824;4.682;2022-11-20T07:32:47;28.25;;;17.02;;
37997;SDS011;24079;51.824;4.682;2022-11-20T07:35:16;27.00;;;17.08;;
37997;SDS011;24079;51.824;4.682;2022-11-20T07:37:42;30.45;;;17.58;;
37997;SDS011;24079;51.824;4.682;2022-11-20T07:40:07;30.27;;;17.80;;
37997;SDS011;24079;51.824;4.682;2022-11-20T07:42:33;34.30;;;19.23;;
37997;SDS011;24079;51.824;4.682;2022-11-20T07:44:59;31.13;;;18.17;;
37997;SDS011;24079;51.824;4.682;2022-11-20T07:47:25;29.58;;;17.95;;
37997;SDS011;24079;51.824;4.682;2022-11-20T07:49:50;28.67;;;16.83;;
37997;SDS011;24079;51.824;4.682;2022-11-20T07:52:16;27.75;;;17.40;;
37997;SDS011;24079;51.824;4.682;2022-11-20T07:54:41;30.60;;;17.92;;
37997;SDS011;24079;51.824;4.682;2022-11-20T07:57:07;28.67;;;18.10;;
37997;SDS011;24079;51.824;4.682;2022-11-20T07:59:32;29.90;;;17.17;;
37997;SDS011;24079;51.824;4.682;2022-11-20T08:01:58;28.42;;;17.58;;
37997;SDS011;24079;51.824;4.682;2022-11-20T08:04:23;29.02;;;17.30;;
37997;SDS011;24079;51.824;4.682;2022-11-20T08:06:49;29.58;;;17.60;;
37997;SDS011;24079;51.824;4.682;2022-11-20T08:09:16;31.95;;;18.38;;
37997;SDS011;24079;51.824;4.682;2022-11-20T08:11:42;28.70;;;18.35;;
37997;SDS011;24079;51.824;4.682;2022-11-20T08:14:26;28.83;;;17.77;;
37997;SDS011;24079;51.824;4.682;2022-11-20T08:16:52;30.60;;;17.80;;
37997;SDS011;24079;51.824;4.682;2022-11-20T08:19:18;29.08;;;17.70;;
37997;SDS011;24079;51.824;4.682;2022-11-20T08:21:43;30.92;;;19.17;;
37997;SDS011;24079;51.824;4.682;2022-11-20T08:24:09;29.58;;;18.23;;
37997;SDS011;24079;51.824;4.682;2022-11-20T08:26:36;28.63;;;18.42;;
37997;SDS011;24079;51.824;4.682;2022-11-20T08:29:03;35.83;;;19.58;;
37997;SDS011;24079;51.824;4.682;2022-11-20T08:31:29;27.17;;;17.63;;
37997;SDS011;24079;51.824;4.682;2022-11-20T08:33:55;29.70;;;17.88;;
37997;SDS011;24079;51.824;4.682;2022-11-20T08:36:21;31.15;;;18.30;;
37997;SDS011;24079;51.824;4.682;2022-11-20T08:38:48;32.83;;;19.83;;
37997;SDS011;24079;51.824;4.682;2022-11-20T08:41:14;30.58;;;17.60;;
37997;SDS011;24079;51.824;4.682;2022-11-20T08:43:53;31.20;;;18.75;;
37997;SDS011;24079;51.824;4.682;2022-11-20T08:46:24;31.35;;;19.63;;
37997;SDS011;24079;51.824;4.682;2022-11-20T08:48:51;28.92;;;18.60;;
37997;SDS011;24079;51.824;4.682;2022-11-20T08:51:18;30.55;;;19.60;;
37997;SDS011;24079;51.824;4.682;2022-11-20T08:53:44;32.17;;;19.58;;
37997;SDS011;24079;51.824;4.682;2022-11-20T08:56:10;30.80;;;19.40;;
37997;SDS011;24079;51.824;4.682;2022-11-20T08:58:37;31.05;;;19.33;;
37997;SDS011;24079;51.824;4.682;2022-11-20T09:01:03;33.40;;;18.67;;
37997;SDS011;24079;51.824;4.682;2022-11-20T09:03:29;29.05;;;19.13;;
37997;SDS011;24079;51.824;4.682;2022-11-20T09:05:58;31.98;;;18.38;;
37997;SDS011;24079;51.824;4.682;2022-11-20T09:08:25;30.25;;;19.63;;
37997;SDS011;24079;51.824;4.682;2022-11-20T09:10:51;30.77;;;19.45;;
37997;SDS011;24079;51.824;4.682;2022-11-20T09:13:17;30.20;;;19.05;;
37997;SDS011;24079;51.824;4.682;2022-11-20T09:15:43;29.02;;;18.98;;
37997;SDS011;24079;51.824;4.682;2022-11-20T09:18:09;32.25;;;20.23;;
37997;SDS011;24079;51.824;4.682;2022-11-20T09:20:34;33.17;;;20.48;;
37997;SDS011;24079;51.824;4.682;2022-11-20T09:23:00;33.30;;;20.67;;
37997;SDS011;24079;51.824;4.682;2022-11-20T09:25:26;38.08;;;21.88;;
37997;SDS011;24079;51.824;4.682;2022-11-20T09:27:58;32.47;;;19.83;;
37997;SDS011;24079;51.824;4.682;2022-11-20T09:30:24;31.75;;;20.20;;
37997;SDS011;24079;51.824;4.682;2022-11-20T09:32:50;32.45;;;18.67;;
37997;SDS011;24079;51.824;4.682;2022-11-20T09:35:16;35.20;;;21.52;;
37997;SDS011;24079;51.824;4.682;2022-11-20T09:37:42;37.35;;;22.10;;
37997;SDS011;24079;51.824;4.682;2022-11-20T09:40:29;33.30;;;21.25;;
37997;SDS011;24079;51.824;4.682;2022-11-20T09:48:27;37.03;;;21.33;;
37997;SDS011;24079;51.824;4.682;2022-11-20T09:54:05;37.53;;;21.38;;
37997;SDS011;24079;51.824;4.682;2022-11-20T09:56:39;35.47;;;22.58;;
37997;SDS011;24079;51.824;4.682;2022-11-20T09:59:07;35.15;;;22.33;;
37997;SDS011;24079;51.824;4.682;2022-11-20T10:01:48;45.05;;;24.23;;
37997;SDS011;24079;51.824;4.682;2022-11-20T10:04:18;45.25;;;25.38;;
37997;SDS011;24079;51.824;4.682;2022-11-20T10:09:33;38.97;;;22.40;;
37997;SDS011;24079;51.824;4.682;2022-11-20T10:23:18;48.17;;;27.05;;
37997;SDS011;24079;51.824;4.682;2022-11-20T10:32:04;43.80;;;26.15;;
37997;SDS011;24079;51.824;4.682;2022-11-20T10:34:23;45.28;;;25.92;;
37997;SDS011;24079;51.824;4.682;2022-11-20T10:37:16;45.47;;;25.85;;
37997;SDS011;24079;51.824;4.682;2022-11-20T10:47:52;46.42;;;27.42;;
37997;SDS011;24079;51.824;4.682;2022-11-20T10:50:22;47.58;;;28.75;;
37997;SDS011;24079;51.824;4.682;2022-11-20T10:52:55;48.83;;;28.13;;
37997;SDS011;24079;51.824;4.682;2022-11-20T10:55:45;50.40;;;27.13;;
37997;SDS011;24079;51.824;4.682;2022-11-20T10:58:52;66.80;;;35.25;;
37997;SDS011;24079;51.824;4.682;2022-11-20T11:01:19;50.75;;;28.48;;
37997;SDS011;24079;51.824;4.682;2022-11-20T11:03:50;56.55;;;31.38;;
37997;SDS011;24079;51.824;4.682;2022-11-20T11:06:39;53.63;;;28.63;;
37997;SDS011;24079;51.824;4.682;2022-11-20T11:09:11;51.85;;;28.20;;
37997;SDS011;24079;51.824;4.682;2022-11-20T11:11:41;50.15;;;28.38;;
37997;SDS011;24079;51.824;4.682;2022-11-20T11:14:13;51.13;;;28.65;;
37997;SDS011;24079;51.824;4.682;2022-11-20T11:16:50;50.97;;;28.15;;
37997;SDS011;24079;51.824;4.682;2022-11-20T11:19:20;54.30;;;29.10;;
37997;SDS011;24079;51.824;4.682;2022-11-20T11:21:47;52.35;;;29.15;;
37997;SDS011;24079;51.824;4.682;2022-11-20T11:24:18;56.70;;;30.75;;
37997;SDS011;24079;51.824;4.682;2022-11-20T11:26:55;57.10;;;28.92;;
37997;SDS011;24079;51.824;4.682;2022-11-20T11:29:21;50.95;;;29.13;;
37997;SDS011;24079;51.824;4.682;2022-11-20T11:31:46;52.22;;;29.42;;
37997;SDS011;24079;51.824;4.682;2022-11-20T11:34:13;53.88;;;28.90;;
37997;SDS011;24079;51.824;4.682;2022-11-20T11:36:41;50.83;;;27.92;;
37997;SDS011;24079;51.824;4.682;2022-11-20T11:39:17;49.47;;;28.00;;
37997;SDS011;24079;51.824;4.682;2022-11-20T11:41:44;53.67;;;29.80;;
37997;SDS011;24079;51.824;4.682;2022-11-20T11:44:15;51.08;;;28.05;;
37997;SDS011;24079;51.824;4.682;2022-11-20T11:47:00;51.72;;;28.20;;
37997;SDS011;24079;51.824;4.682;2022-11-20T11:49:28;54.35;;;29.40;;
37997;SDS011;24079;51.824;4.682;2022-11-20T11:52:04;53.58;;;30.35;;
37997;SDS011;24079;51.824;4.682;2022-11-20T11:57:26;62.85;;;33.05;;
37997;SDS011;24079;51.824;4.682;2022-11-20T12:00:18;51.60;;;29.17;;
37997;SDS011;24079;51.824;4.682;2022-11-20T12:08:21;57.47;;;31.00;;
37997;SDS011;24079;51.824;4.682;2022-11-20T12:16:20;52.00;;;29.40;;
37997;SDS011;24079;51.824;4.682;2022-11-20T12:18:50;50.70;;;28.13;;
37997;SDS011;24079;51.824;4.682;2022-11-20T12:21:18;48.17;;;28.33;;
37997;SDS011;24079;51.824;4.682;2022-11-20T12:26:44;53.45;;;30.23;;
37997;SDS011;24079;51.824;4.682;2022-11-20T13:02:14;68.78;;;34.92;;
37997;SDS011;24079;51.824;4.682;2022-11-20T13:07:44;68.90;;;36.20;;
37997;SDS011;24079;51.824;4.682;2022-11-20T13:10:26;70.47;;;34.58;;
37997;SDS011;24079;51.824;4.682;2022-11-20T13:13:01;68.75;;;36.58;;
37997;SDS011;24079;51.824;4.682;2022-11-20T13:15:53;68.78;;;36.47;;
37997;SDS011;24079;51.824;4.682;2022-11-20T13:18:27;75.32;;;36.92;;
37997;SDS011;24079;51.824;4.682;2022-11-20T13:21:01;65.72;;;36.85;;
37997;SDS011;24079;51.824;4.682;2022-11-20T13:23:27;71.53;;;36.05;;
37997;SDS011;24079;51.824;4.682;2022-11-20T13:26:06;76.43;;;38.67;;
37997;SDS011;24079;51.824;4.682;2022-11-20T13:28:41;75.28;;;37.28;;
37997;SDS011;24079;51.824;4.682;2022-11-20T13:31:23;75.90;;;37.35;;
37997;SDS011;24079;51.824;4.682;2022-11-20T13:33:54;77.43;;;38.08;;
37997;SDS011;24079;51.824;4.682;2022-11-20T13:38:49;84.53;;;41.55;;
37997;SDS011;24079;51.824;4.682;2022-11-20T13:41:26;77.78;;;38.40;;
37997;SDS011;24079;51.824;4.682;2022-11-20T13:44:15;85.00;;;42.15;;
37997;SDS011;24079;51.824;4.682;2022-11-20T13:46:50;75.38;;;38.92;;
37997;SDS011;24079;51.824;4.682;2022-11-20T13:51:57;230.55;;;95.13;;
37997;SDS011;24079;51.824;4.682;2022-11-20T14:00:29;89.55;;;49.47;;
37997;SDS011;24079;51.824;4.682;2022-11-20T14:05:46;87.05;;;43.13;;
37997;SDS011;24079;51.824;4.682;2022-11-20T14:08:25;83.85;;;42.92;;
37997;SDS011;24079;51.824;4.682;2022-11-20T14:11:04;95.35;;;42.78;;
37997;SDS011;24079;51.824;4.682;2022-11-20T14:16:23;87.15;;;41.85;;
37997;SDS011;24079;51.824;4.682;2022-11-20T14:18:51;83.93;;;40.22;;
37997;SDS011;24079;51.824;4.682;2022-11-20T14:21:26;88.90;;;41.03;;
37997;SDS011;24079;51.824;4.682;2022-11-20T14:24:04;85.05;;;39.67;;
37997;SDS011;24079;51.824;4.682;2022-11-20T14:26:30;92.22;;;41.53;;
37997;SDS011;24079;51.824;4.682;2022-11-20T14:28:57;89.82;;;42.85;;
37997;SDS011;24079;51.824;4.682;2022-11-20T14:31:23;87.40;;;41.80;;
37997;SDS011;24079;51.824;4.682;2022-11-20T14:33:54;96.78;;;45.33;;
37997;SDS011;24079;51.824;4.682;2022-11-20T14:36:21;90.18;;;41.13;;
37997;SDS011;24079;51.824;4.682;2022-11-20T14:38:49;82.47;;;39.80;;
37997;SDS011;24079;51.824;4.682;2022-11-20T14:41:23;86.63;;;41.88;;
37997;SDS011;24079;51.824;4.682;2022-11-20T14:46:24;90.32;;;41.30;;
37997;SDS011;24079;51.824;4.682;2022-11-20T14:48:51;97.28;;;42.15;;
37997;SDS011;24079;51.824;4.682;2022-11-20T14:51:25;87.82;;;41.50;;
37997;SDS011;24079;51.824;4.682;2022-11-20T14:53:55;89.25;;;41.85;;
37997;SDS011;24079;51.824;4.682;2022-11-20T14:56:21;95.53;;;41.42;;
37997;SDS011;24079;51.824;4.682;2022-11-20T14:58:55;98.53;;;41.40;;
37997;SDS011;24079;51.824;4.682;2022-11-20T15:01:26;87.72;;;41.65;;
37997;SDS011;24079;51.824;4.682;2022-11-20T15:04:09;83.00;;;40.03;;
37997;SDS011;24079;51.824;4.682;2022-11-20T15:06:36;89.70;;;39.08;;
37997;SDS011;24079;51.824;4.682;2022-11-20T15:09:03;81.80;;;38.65;;
37997;SDS011;24079;51.824;4.682;2022-11-20T15:11:31;82.55;;;39.25;;
37997;SDS011;24079;51.824;4.682;2022-11-20T15:14:02;77.82;;;38.17;;
37997;SDS011;24079;51.824;4.682;2022-11-20T15:16:31;79.55;;;38.78;;
37997;SDS011;24079;51.824;4.682;2022-11-20T15:18:57;78.63;;;39.38;;
37997;SDS011;24079;51.824;4.682;2022-11-20T15:21:23;86.53;;;37.60;;
37997;SDS011;24079;51.824;4.682;2022-11-20T15:23:49;78.82;;;38.50;;
37997;SDS011;24079;51.824;4.682;2022-11-20T15:26:24;82.13;;;37.55;;
37997;SDS011;24079;51.824;4.682;2022-11-20T15:28:52;84.13;;;41.47;;
37997;SDS011;24079;51.824;4.682;2022-11-20T15:31:19;79.97;;;39.25;;
37997;SDS011;24079;51.824;4.682;2022-11-20T15:33:47;77.30;;;39.47;;
37997;SDS011;24079;51.824;4.682;2022-11-20T15:36:13;77.18;;;39.40;;
37997;SDS011;24079;51.824;4.682;2022-11-20T15:38:38;80.93;;;40.38;;
37997;SDS011;24079;51.824;4.682;2022-11-20T15:41:04;77.78;;;41.35;;
37997;SDS011;24079;51.824;4.682;2022-11-20T15:43:30;78.88;;;39.45;;
37997;SDS011;24079;51.824;4.682;2022-11-20T15:46:09;80.80;;;39.25;;
37997;SDS011;24079;51.824;4.682;2022-11-20T15:48:47;82.47;;;38.83;;
37997;SDS011;24079;51.824;4.682;2022-11-20T15:51:35;83.03;;;41.67;;
37997;SDS011;24079;51.824;4.682;2022-11-20T15:54:09;81.50;;;39.13;;
37997;SDS011;24079;51.824;4.682;2022-11-20T15:56:36;76.20;;;36.22;;
37997;SDS011;24079;51.824;4.682;2022-11-20T15:59:02;74.07;;;34.80;;
37997;SDS011;24079;51.824;4.682;2022-11-20T16:01:28;72.43;;;33.47;;
37997;SDS011;24079;51.824;4.682;2022-11-20T16:03:54;79.28;;;36.20;;
37997;SDS011;24079;51.824;4.682;2022-11-20T16:06:19;76.75;;;35.40;;
37997;SDS011;24079;51.824;4.682;2022-11-20T16:08:45;83.68;;;37.20;;
37997;SDS011;24079;51.824;4.682;2022-11-20T16:11:15;77.05;;;37.22;;
37997;SDS011;24079;51.824;4.682;2022-11-20T16:13:42;72.93;;;34.90;;
37997;SDS011;24079;51.824;4.682;2022-11-20T16:16:31;74.65;;;34.47;;
37997;SDS011;24079;51.824;4.682;2022-11-20T16:18:58;78.47;;;35.00;;